createdAt,value
2018-03-23T00:00:10.873Z,4.75
2018-03-23T00:02:44.370Z,4.74
2018-03-23T00:05:18.057Z,4.72
2018-03-23T00:07:51.650Z,4.78
2018-03-23T00:10:25.266Z,4.79
2018-03-23T00:12:58.830Z,4.76
2018-03-23T00:15:32.365Z,4.74
2018-03-23T00:18:06.070Z,4.79
2018-03-23T00:20:39.720Z,4.81
2018-03-23T00:23:13.325Z,4.83
2018-03-23T00:25:46.949Z,4.79
2018-03-23T00:28:20.493Z,4.78
2018-03-23T00:30:54.163Z,4.79
2018-03-23T00:33:27.798Z,4.82
2018-03-23T00:36:01.330Z,4.83
2018-03-23T00:38:35.057Z,4.80
2018-03-23T00:41:08.678Z,4.84
2018-03-23T00:43:42.266Z,4.85
2018-03-23T00:46:15.909Z,4.85
2018-03-23T00:48:49.567Z,4.94
2018-03-23T00:51:23.289Z,4.96
2018-03-23T00:53:56.969Z,4.93
2018-03-23T00:56:30.633Z,4.87
2018-03-23T00:59:04.135Z,4.88
2018-03-23T01:01:37.792Z,4.90
2018-03-23T01:04:11.409Z,4.95
2018-03-23T01:06:45.113Z,4.98
2018-03-23T01:09:18.690Z,5.00
2018-03-23T01:11:52.447Z,4.94
2018-03-23T01:14:26.006Z,4.88
2018-03-23T01:16:59.601Z,4.91
2018-03-23T01:19:33.166Z,4.95
2018-03-23T01:22:06.779Z,4.94
2018-03-23T01:24:40.326Z,4.96
2018-03-23T01:27:13.907Z,4.94
2018-03-23T01:29:47.403Z,4.93
2018-03-23T01:32:21.140Z,4.93
2018-03-23T01:34:54.714Z,4.92
2018-03-23T01:37:28.370Z,4.94
2018-03-23T01:40:02.052Z,4.95
2018-03-23T01:42:35.649Z,4.99
2018-03-23T01:45:09.150Z,4.99
2018-03-23T01:47:42.710Z,4.97
2018-03-23T01:50:16.604Z,4.97
2018-03-23T01:52:50.169Z,4.96
2018-03-23T01:55:23.732Z,4.98
2018-03-23T01:57:57.317Z,4.95
2018-03-23T02:00:30.882Z,4.95
2018-03-23T02:03:04.505Z,4.93
2018-03-23T02:05:38.089Z,4.97
2018-03-23T02:08:11.609Z,5.00
2018-03-23T02:10:45.265Z,5.03
2018-03-23T02:13:18.990Z,5.00
2018-03-23T02:15:52.666Z,4.99
2018-03-23T02:18:34.115Z,5.04
2018-03-23T02:21:07.699Z,5.02
2018-03-23T02:23:41.300Z,5.05
2018-03-23T02:26:14.929Z,5.02
2018-03-23T02:28:48.565Z,4.99
2018-03-23T02:31:22.154Z,5.01
2018-03-23T02:33:55.832Z,5.02
2018-03-23T02:36:29.493Z,5.05
2018-03-23T02:39:03.127Z,5.05
2018-03-23T02:41:36.789Z,5.05
2018-03-23T02:44:10.442Z,5.03
2018-03-23T02:46:44.120Z,5.04
2018-03-23T02:49:17.630Z,5.07
2018-03-23T02:51:51.210Z,5.06
2018-03-23T02:54:24.755Z,5.06
2018-03-23T02:56:58.416Z,5.06
2018-03-23T02:59:31.999Z,5.11
2018-03-23T03:02:05.609Z,5.09
2018-03-23T03:04:39.178Z,5.07
2018-03-23T03:07:12.846Z,5.03
2018-03-23T03:09:46.546Z,5.06
2018-03-23T03:12:20.576Z,5.05
2018-03-23T03:14:54.216Z,5.08
2018-03-23T03:17:27.770Z,5.07
2018-03-23T03:20:01.470Z,5.08
2018-03-23T03:22:35.130Z,5.07
2018-03-23T03:25:08.671Z,5.10
2018-03-23T03:27:42.271Z,5.08
2018-03-23T03:30:16.196Z,5.13
2018-03-23T03:32:49.762Z,5.14
2018-03-23T03:35:23.526Z,5.16
2018-03-23T03:37:57.184Z,5.12
2018-03-23T03:40:30.818Z,5.12
2018-03-23T03:43:04.389Z,5.14
2018-03-23T03:45:38.067Z,5.12
2018-03-23T03:48:11.545Z,5.12
2018-03-23T03:50:45.190Z,5.15
2018-03-23T03:53:19.121Z,5.13
2018-03-23T03:55:52.670Z,5.12
2018-03-23T03:58:26.194Z,5.13
2018-03-23T04:00:59.716Z,5.11
2018-03-23T04:03:33.251Z,5.12
2018-03-23T04:06:06.806Z,5.10
2018-03-23T04:08:40.400Z,5.11
2018-03-23T04:11:13.933Z,5.12
2018-03-23T04:13:47.740Z,5.07
2018-03-23T04:16:21.395Z,5.09
2018-03-23T04:18:54.900Z,5.10
2018-03-23T04:21:28.598Z,5.05
2018-03-23T04:24:02.210Z,5.05
2018-03-23T04:26:35.768Z,5.02
2018-03-23T04:29:09.487Z,5.01
2018-03-23T04:31:43.018Z,5.04
2018-03-23T04:34:16.634Z,5.03
2018-03-23T04:36:50.199Z,4.97
2018-03-23T04:39:23.781Z,4.94
2018-03-23T04:41:57.409Z,4.93
2018-03-23T04:44:31.117Z,4.92
2018-03-23T04:47:04.639Z,4.85
2018-03-23T04:49:38.169Z,4.93
2018-03-23T04:52:11.817Z,4.89
2018-03-23T04:54:45.425Z,4.86
2018-03-23T04:57:18.985Z,4.85
2018-03-23T04:59:52.510Z,4.87
2018-03-23T05:02:26.106Z,4.83
2018-03-23T05:04:59.664Z,4.80
2018-03-23T05:07:33.294Z,4.78
2018-03-23T05:10:06.942Z,4.78
2018-03-23T05:12:40.629Z,4.66
2018-03-23T05:15:14.221Z,4.66
2018-03-23T05:17:47.754Z,4.60
2018-03-23T05:20:21.384Z,4.52
2018-03-23T05:22:54.993Z,4.57
2018-03-23T05:25:28.614Z,4.61
2018-03-23T05:28:02.397Z,4.50
2018-03-23T05:30:35.997Z,4.49
2018-03-23T05:33:09.750Z,4.47
2018-03-23T05:35:43.310Z,4.48
2018-03-23T05:38:16.952Z,4.44
2018-03-23T05:40:50.458Z,4.47
2018-03-23T05:43:24.138Z,4.54
2018-03-23T05:45:57.719Z,4.50
2018-03-23T05:48:31.321Z,4.51
2018-03-23T05:51:05.689Z,4.45
2018-03-23T05:53:39.159Z,4.41
2018-03-23T05:56:12.642Z,4.44
2018-03-23T05:58:46.214Z,4.38
2018-03-23T06:01:19.868Z,4.32
2018-03-23T06:03:53.501Z,4.29
2018-03-23T06:06:27.066Z,4.24
2018-03-23T06:09:00.678Z,4.27
2018-03-23T06:11:34.376Z,4.19
2018-03-23T06:14:07.952Z,4.27
2018-03-23T06:16:41.639Z,4.24
2018-03-23T06:19:15.461Z,4.26
2018-03-23T06:21:49.270Z,4.24
2018-03-23T06:24:23.154Z,4.20
2018-03-23T06:26:56.809Z,4.25
2018-03-23T06:29:30.454Z,4.28
2018-03-23T06:32:04.065Z,4.20
2018-03-23T06:34:37.737Z,4.27
2018-03-23T06:37:11.330Z,4.19
2018-03-23T06:39:45.045Z,4.18
2018-03-23T06:42:18.573Z,4.21
2018-03-23T06:44:52.250Z,4.15
2018-03-23T06:47:25.992Z,4.15
2018-03-23T06:49:59.658Z,4.13
2018-03-23T06:52:33.458Z,4.13
2018-03-23T06:55:07.066Z,4.13
2018-03-23T06:57:40.725Z,4.16
2018-03-23T07:00:14.399Z,4.17
2018-03-23T07:02:48.170Z,4.27
2018-03-23T07:05:21.878Z,4.25
2018-03-23T07:07:55.477Z,4.15
2018-03-23T07:10:29.085Z,4.20
2018-03-23T07:13:02.874Z,4.16
2018-03-23T07:15:36.652Z,4.24
2018-03-23T07:18:10.474Z,4.19
2018-03-23T07:20:44.097Z,4.26
2018-03-23T07:23:17.958Z,4.18
2018-03-23T07:25:51.553Z,4.19
2018-03-23T07:28:25.229Z,4.15
2018-03-23T07:30:58.747Z,4.19
2018-03-23T07:33:32.242Z,4.15
2018-03-23T07:36:14.459Z,4.15
2018-03-23T07:38:47.998Z,4.15
2018-03-23T07:41:21.733Z,4.18
2018-03-23T07:43:55.302Z,4.20
2018-03-23T07:46:28.897Z,4.23
2018-03-23T07:49:02.537Z,4.26
2018-03-23T07:51:36.094Z,4.36
2018-03-23T07:54:09.697Z,4.49
2018-03-23T07:56:43.361Z,4.51
2018-03-23T07:59:17.053Z,4.58
2018-03-23T08:01:50.558Z,4.63
2018-03-23T08:04:24.237Z,4.63
2018-03-23T08:06:57.828Z,4.67
2018-03-23T08:09:31.320Z,4.79
2018-03-23T08:12:05.097Z,4.74
2018-03-23T08:14:38.644Z,4.83
2018-03-23T08:17:12.359Z,4.95
2018-03-23T08:19:45.909Z,4.82
2018-03-23T08:22:19.566Z,4.90
2018-03-23T08:24:53.205Z,4.86
2018-03-23T08:27:26.774Z,5.05
2018-03-23T08:30:00.502Z,5.01
2018-03-23T08:32:34.169Z,5.02
2018-03-23T08:35:07.695Z,5.18
2018-03-23T08:37:41.301Z,5.17
2018-03-23T08:40:14.869Z,5.42
2018-03-23T08:42:48.425Z,5.08
2018-03-23T08:45:22.093Z,5.09
2018-03-23T08:47:55.653Z,5.21
2018-03-23T08:50:29.193Z,5.29
2018-03-23T08:53:02.791Z,5.15
2018-03-23T08:55:36.446Z,5.42
2018-03-23T08:58:10.089Z,5.47
2018-03-23T09:00:43.770Z,5.38
2018-03-23T09:03:17.449Z,5.36
2018-03-23T09:05:51.182Z,5.31
2018-03-23T09:08:24.813Z,5.33
2018-03-23T09:10:58.533Z,5.32
2018-03-23T09:13:32.142Z,5.45
2018-03-23T09:16:05.662Z,5.69
2018-03-23T09:18:39.324Z,5.50
2018-03-23T09:21:12.954Z,5.70
2018-03-23T09:23:46.606Z,5.86
2018-03-23T09:26:20.149Z,6.19
2018-03-23T09:28:53.798Z,6.21
2018-03-23T09:31:27.590Z,6.23
2018-03-23T09:34:01.217Z,6.67
2018-03-23T09:36:34.862Z,7.22
2018-03-23T09:39:08.518Z,7.26
2018-03-23T09:41:42.934Z,7.49
2018-03-23T09:44:16.481Z,7.06
2018-03-23T09:46:50.013Z,6.79
2018-03-23T09:49:23.802Z,6.85
2018-03-23T09:51:57.582Z,6.73
2018-03-23T09:54:31.172Z,6.62
2018-03-23T10:00:03.699Z,6.43
2018-03-23T10:02:37.475Z,6.57
2018-03-23T10:05:11.130Z,6.90
2018-03-23T10:07:44.737Z,6.75
2018-03-23T10:10:18.418Z,6.66
2018-03-23T10:12:52.277Z,6.34
2018-03-23T10:15:26.040Z,6.53
2018-03-23T10:17:59.722Z,6.33
2018-03-23T10:20:33.275Z,6.32
2018-03-23T10:23:06.931Z,6.24
2018-03-23T10:25:40.539Z,6.11
2018-03-23T10:28:14.424Z,6.08
2018-03-23T10:30:48.299Z,6.02
2018-03-23T10:33:22.079Z,5.99
2018-03-23T10:35:55.663Z,6.14
2018-03-23T10:38:29.519Z,6.31
2018-03-23T10:41:03.198Z,6.38
2018-03-23T10:43:36.926Z,6.23
2018-03-23T10:46:10.508Z,6.10
2018-03-23T10:48:44.196Z,6.09
2018-03-23T10:51:17.831Z,6.20
2018-03-23T10:53:51.515Z,6.37
2018-03-23T10:56:25.216Z,6.40
2018-03-23T10:58:58.893Z,6.22
2018-03-23T11:01:32.755Z,6.19
2018-03-23T11:04:06.374Z,6.29
2018-03-23T11:06:40.402Z,6.32
2018-03-23T11:09:14.127Z,6.39
2018-03-23T11:11:47.842Z,6.45
2018-03-23T11:14:21.730Z,6.36
2018-03-23T11:16:55.262Z,6.49
2018-03-23T11:19:29.050Z,6.39
2018-03-23T11:22:02.563Z,6.44
2018-03-23T11:24:36.486Z,6.43
2018-03-23T11:27:10.236Z,6.33
2018-03-23T11:29:43.958Z,6.69
2018-03-23T11:32:17.736Z,6.73
2018-03-23T11:34:51.410Z,6.47
2018-03-23T11:37:24.933Z,6.39
2018-03-23T11:39:58.611Z,6.60
2018-03-23T11:42:32.270Z,6.37
2018-03-23T11:45:05.859Z,6.31
2018-03-23T11:47:39.555Z,6.28
2018-03-23T11:50:13.171Z,6.33
2018-03-23T11:52:47.031Z,6.41
2018-03-23T11:55:20.724Z,6.52
2018-03-23T11:57:54.607Z,6.59
2018-03-23T12:00:28.242Z,6.56
2018-03-23T12:03:01.876Z,6.57
2018-03-23T12:05:35.547Z,6.75
2018-03-23T12:08:09.167Z,6.78
2018-03-23T12:10:42.798Z,6.67
2018-03-23T12:13:16.612Z,6.59
2018-03-23T12:15:50.252Z,6.68
2018-03-23T12:18:23.833Z,6.53
2018-03-23T12:20:57.410Z,6.42
2018-03-23T12:23:31.112Z,6.48
2018-03-23T12:26:04.768Z,6.40
2018-03-23T12:28:38.563Z,6.36
2018-03-23T12:31:12.187Z,6.38
2018-03-23T12:33:45.950Z,6.43
2018-03-23T12:36:19.623Z,6.40
2018-03-23T12:38:53.371Z,6.54
2018-03-23T12:41:27.154Z,6.41
2018-03-23T12:44:00.952Z,6.32
2018-03-23T12:46:34.597Z,6.37
2018-03-23T12:49:08.250Z,6.39
2018-03-23T12:51:41.866Z,6.44
2018-03-23T12:54:15.519Z,6.50
2018-03-23T12:59:56.422Z,6.41
2018-03-23T13:02:30.126Z,6.33
2018-03-23T13:05:03.957Z,6.31
2018-03-23T13:07:37.640Z,6.42
2018-03-23T13:10:11.382Z,6.35
2018-03-23T13:12:45.065Z,6.22
2018-03-23T13:15:18.666Z,6.29
2018-03-23T13:17:52.407Z,6.28
2018-03-23T13:20:25.990Z,6.44
2018-03-23T13:22:59.712Z,6.40
2018-03-23T13:25:33.574Z,6.36
2018-03-23T13:28:07.406Z,6.50
2018-03-23T13:30:41.076Z,6.50
2018-03-23T13:33:14.902Z,6.41
2018-03-23T13:35:48.550Z,6.36
2018-03-23T13:38:22.142Z,6.39
2018-03-23T13:40:55.700Z,6.51
2018-03-23T13:43:29.276Z,6.39
2018-03-23T13:46:02.824Z,6.46
2018-03-23T13:48:36.443Z,6.42
2018-03-23T13:51:10.247Z,6.45
2018-03-23T13:53:43.851Z,6.40
2018-03-23T13:56:17.658Z,6.33
2018-03-23T13:58:56.936Z,6.26
2018-03-23T14:01:36.471Z,6.32
2018-03-23T14:04:10.207Z,6.28
2018-03-23T14:06:43.778Z,6.41
2018-03-23T14:09:17.451Z,6.36
2018-03-23T14:11:51.239Z,6.33
2018-03-23T14:14:24.802Z,6.16
2018-03-23T14:16:58.520Z,6.28
2018-03-23T14:19:32.224Z,6.27
2018-03-23T14:22:05.787Z,6.32
2018-03-23T14:24:39.314Z,6.17
2018-03-23T14:27:12.988Z,6.27
2018-03-23T14:29:46.555Z,6.19
2018-03-23T14:32:20.241Z,6.22
2018-03-23T14:34:53.978Z,6.25
2018-03-23T14:37:27.555Z,6.27
2018-03-23T14:40:01.260Z,6.32
2018-03-23T14:42:35.061Z,6.31
2018-03-23T14:45:08.774Z,6.25
2018-03-23T14:47:42.343Z,6.38
2018-03-23T14:50:16.058Z,6.45
2018-03-23T14:52:49.718Z,6.30
2018-03-23T14:55:23.347Z,6.28
2018-03-23T14:57:56.987Z,6.49
2018-03-23T15:00:30.647Z,6.36
2018-03-23T15:03:04.271Z,6.35
2018-03-23T15:05:37.967Z,6.25
2018-03-23T15:08:11.836Z,6.31
2018-03-23T15:10:45.469Z,6.26
2018-03-23T15:13:19.313Z,6.39
2018-03-23T15:15:52.892Z,6.37
2018-03-23T15:18:26.611Z,6.32
2018-03-23T15:21:00.262Z,6.17
2018-03-23T15:23:33.863Z,6.23
2018-03-23T15:26:07.442Z,6.20
2018-03-23T15:28:41.094Z,6.16
2018-03-23T15:31:14.779Z,6.33
2018-03-23T15:33:48.390Z,6.26
2018-03-23T15:36:22.239Z,6.23
2018-03-23T15:38:55.838Z,6.35
2018-03-23T15:41:29.645Z,6.15
2018-03-23T15:44:03.290Z,6.20
2018-03-23T15:46:36.861Z,6.23
2018-03-23T15:49:10.614Z,6.23
2018-03-23T15:51:44.190Z,6.14
2018-03-23T15:54:17.779Z,6.16
2018-03-23T15:56:51.507Z,6.14
2018-03-23T15:59:25.408Z,6.08
2018-03-23T16:01:59.081Z,6.08
2018-03-23T16:04:32.719Z,5.98
2018-03-23T16:07:06.331Z,5.99
2018-03-23T16:09:39.862Z,5.99
2018-03-23T16:12:13.595Z,6.04
2018-03-23T16:14:47.237Z,5.97
2018-03-23T16:17:20.937Z,5.98
2018-03-23T16:19:54.526Z,5.88
2018-03-23T16:22:28.116Z,5.94
2018-03-23T16:25:01.735Z,6.02
2018-03-23T16:27:35.266Z,5.97
2018-03-23T16:30:08.879Z,5.99
2018-03-23T16:32:42.571Z,5.90
2018-03-23T16:35:16.343Z,5.86
2018-03-23T16:37:49.968Z,5.92
2018-03-23T16:40:23.591Z,5.92
2018-03-23T16:42:57.245Z,5.97
2018-03-23T16:45:31.070Z,5.93
2018-03-23T16:48:04.735Z,5.82
2018-03-23T16:50:38.278Z,5.87
2018-03-23T16:53:12.219Z,5.83
2018-03-23T16:55:45.866Z,5.93
2018-03-23T16:58:19.587Z,5.91
2018-03-23T17:00:53.490Z,5.88
2018-03-23T17:03:27.312Z,5.76
2018-03-23T17:06:20.349Z,5.74
2018-03-23T17:08:54.094Z,5.70
2018-03-23T17:11:27.775Z,5.69
2018-03-23T17:14:01.435Z,5.74
2018-03-23T17:16:35.030Z,5.73
2018-03-23T17:19:08.799Z,5.63
2018-03-23T17:21:42.491Z,5.64
2018-03-23T17:24:16.297Z,5.54
2018-03-23T17:26:50.047Z,5.64
2018-03-23T17:29:23.680Z,5.59
2018-03-23T17:31:57.522Z,5.57
2018-03-23T17:34:31.428Z,5.50
2018-03-23T17:37:05.195Z,5.68
2018-03-23T17:39:38.868Z,5.48
2018-03-23T17:42:12.506Z,5.53
2018-03-23T17:44:46.142Z,5.51
2018-03-23T17:47:19.834Z,5.59
2018-03-23T17:49:53.386Z,5.57
2018-03-23T17:52:26.970Z,5.60
2018-03-23T17:55:01.402Z,5.48
2018-03-23T17:57:35.190Z,5.49
2018-03-23T18:00:09.075Z,5.58
2018-03-23T18:02:42.759Z,5.47
2018-03-23T18:05:16.591Z,5.48
2018-03-23T18:07:50.354Z,5.45
2018-03-23T18:10:24.158Z,5.46
2018-03-23T18:12:57.851Z,5.44
2018-03-23T18:15:31.751Z,5.55
2018-03-23T18:18:05.380Z,5.57
2018-03-23T18:20:38.999Z,5.49
2018-03-23T18:23:12.578Z,5.49
2018-03-23T18:25:46.107Z,5.51
2018-03-23T18:28:19.702Z,5.47
2018-03-23T18:30:53.315Z,5.41
2018-03-23T18:33:27.037Z,5.35
2018-03-23T18:36:00.815Z,5.34
2018-03-23T18:38:34.309Z,5.40
2018-03-23T18:41:07.963Z,5.40
2018-03-23T18:43:41.620Z,5.41
2018-03-23T18:46:15.691Z,5.46
2018-03-23T18:48:49.322Z,5.51
2018-03-23T18:51:22.919Z,5.36
2018-03-23T18:53:56.471Z,5.36
2018-03-23T18:56:30.183Z,5.37
2018-03-23T18:59:03.805Z,5.43
2018-03-23T19:01:37.444Z,5.42
2018-03-23T19:04:11.043Z,5.34
2018-03-23T19:06:44.694Z,5.41
2018-03-23T19:09:18.321Z,5.36
2018-03-23T19:11:51.975Z,5.48
2018-03-23T19:14:25.662Z,5.36
2018-03-23T19:16:59.299Z,5.45
2018-03-23T19:19:33.047Z,5.40
2018-03-23T19:22:06.819Z,5.42
2018-03-23T19:24:40.467Z,5.40
2018-03-23T19:27:14.018Z,5.37
2018-03-23T19:29:47.652Z,5.37
2018-03-23T19:32:21.349Z,5.44
2018-03-23T19:34:55.192Z,5.28
2018-03-23T19:37:28.773Z,5.29
2018-03-23T19:40:10.522Z,5.35
2018-03-23T19:42:44.078Z,5.19
2018-03-23T19:45:17.726Z,5.13
2018-03-23T19:47:51.432Z,5.27
2018-03-23T19:50:25.115Z,5.34
2018-03-23T19:52:58.838Z,5.28
2018-03-23T19:55:32.435Z,5.28
2018-03-23T19:58:06.055Z,5.31
2018-03-23T20:00:39.738Z,5.30
2018-03-23T20:03:13.352Z,5.39
2018-03-23T20:05:54.867Z,5.19
2018-03-23T20:08:28.502Z,5.22
2018-03-23T20:11:02.168Z,5.32
2018-03-23T20:13:35.995Z,5.35
2018-03-23T20:16:09.548Z,5.22
2018-03-23T20:18:43.199Z,5.22
2018-03-23T20:21:16.851Z,5.19
2018-03-23T20:23:50.410Z,5.18
2018-03-23T20:26:23.931Z,5.20
2018-03-23T20:28:57.627Z,5.10
2018-03-23T20:31:37.004Z,5.20
2018-03-23T20:34:10.675Z,5.15
2018-03-23T20:36:44.423Z,5.15
2018-03-23T20:39:18.099Z,5.19
2018-03-23T20:41:51.731Z,5.10
2018-03-23T20:44:25.371Z,5.10
2018-03-23T20:47:01.018Z,5.01
2018-03-23T20:49:34.527Z,5.05
2018-03-23T20:52:08.179Z,5.01
2018-03-23T20:54:41.820Z,5.11
2018-03-23T20:57:15.367Z,5.13
2018-03-23T20:59:48.883Z,5.09
2018-03-23T21:02:22.451Z,5.11
2018-03-23T21:04:56.066Z,5.21
2018-03-23T21:07:29.691Z,5.11
2018-03-23T21:10:03.352Z,5.10
2018-03-23T21:12:37.074Z,5.18
2018-03-23T21:15:10.719Z,5.17
2018-03-23T21:17:44.398Z,5.17
2018-03-23T21:20:17.878Z,5.09
2018-03-23T21:22:51.463Z,5.22
2018-03-23T21:25:25.204Z,5.14
2018-03-23T21:27:58.930Z,5.16
2018-03-23T21:30:32.419Z,5.12
2018-03-23T21:33:06.070Z,5.15
2018-03-23T21:35:39.607Z,5.20
2018-03-23T21:38:13.263Z,5.18
2018-03-23T21:40:46.879Z,5.18
2018-03-23T21:43:20.511Z,5.18
2018-03-23T21:45:54.345Z,5.22
2018-03-23T21:48:27.988Z,5.21
2018-03-23T21:51:01.555Z,5.26
2018-03-23T21:53:35.306Z,5.16
2018-03-23T21:56:09.139Z,5.08
2018-03-23T21:58:42.694Z,5.13
2018-03-23T22:01:16.337Z,5.13
2018-03-23T22:03:50.035Z,5.06
2018-03-23T22:06:23.579Z,5.12
2018-03-23T22:08:57.203Z,5.14
2018-03-23T22:11:30.959Z,5.02
2018-03-23T22:14:04.591Z,5.09
2018-03-23T22:16:38.282Z,5.12
2018-03-23T22:19:11.886Z,5.00
2018-03-23T22:21:45.637Z,5.11
2018-03-23T22:24:19.445Z,5.03
2018-03-23T22:26:53.043Z,5.09
2018-03-23T22:29:26.722Z,5.11
2018-03-23T22:32:00.450Z,5.07
2018-03-23T22:34:34.030Z,4.98
2018-03-23T22:37:07.670Z,5.08
2018-03-23T22:39:41.221Z,4.92
2018-03-23T22:42:14.872Z,4.94
2018-03-23T22:44:48.597Z,4.89
2018-03-23T22:47:22.166Z,4.90
2018-03-23T22:49:55.827Z,4.84
2018-03-23T22:52:29.444Z,5.07
2018-03-23T22:55:03.221Z,5.11
2018-03-23T22:57:36.910Z,5.09
2018-03-23T23:00:10.558Z,5.08
2018-03-23T23:02:44.232Z,5.15
2018-03-23T23:05:17.758Z,5.03
2018-03-23T23:07:51.441Z,5.08
2018-03-23T23:10:25.014Z,5.07
2018-03-23T23:12:58.745Z,5.04
2018-03-23T23:15:32.280Z,5.07
2018-03-23T23:18:05.804Z,4.93
2018-03-23T23:20:39.549Z,4.94
2018-03-23T23:23:13.474Z,4.88
2018-03-23T23:25:47.106Z,4.87
2018-03-23T23:28:20.621Z,4.82
2018-03-23T23:30:54.181Z,4.90
2018-03-23T23:33:27.837Z,4.83
2018-03-23T23:36:01.574Z,4.81
2018-03-23T23:38:35.237Z,4.73
2018-03-23T23:41:08.762Z,4.63
2018-03-23T23:43:42.700Z,4.49
2018-03-23T23:46:16.222Z,4.36
2018-03-23T23:48:49.909Z,4.38
2018-03-23T23:51:23.519Z,4.36
2018-03-23T23:53:57.158Z,4.27
2018-03-23T23:56:30.834Z,4.24
2018-03-23T23:59:04.513Z,4.15
